ADDS METAR Data INFO
IDs: Format: Raw Decoded Include TAF

Data at: 1404 UTC 12 Dec 2017

KPNM 121355Z AUTO 00000KT 10SM OVC085 M15/M17 A3019 RMK AO2 TSNO
KPNM 121335Z AUTO 00000KT 10SM SCT070 BKN085 M16/M18 A3019 RMK AO2 TSNO
KPNM 121315Z AUTO 28003KT 10SM CLR M17/M18 A3019 RMK AO2 TSNO
KPNM 121255Z AUTO 28004KT 10SM CLR M17/M19 A3020 RMK AO2 TSNO
KPNM 121235Z AUTO 27003KT 10SM CLR M17/M19 A3021 RMK AO2 TSNO
KPNM 121215Z AUTO 00000KT 10SM CLR M17/M18 A3020 RMK AO2 TSNO
KPNM 121155Z AUTO 00000KT 10SM CLR M17/M19 A3021 RMK AO2 TSNO
KPNM 121135Z AUTO 00000KT 10SM CLR M16/M18 A3022 RMK AO2 TSNO
KPNM 121115Z AUTO 28003KT 10SM CLR M16/M18 A3023 RMK AO2 TSNO
KPNM 121055Z AUTO 27005KT 10SM CLR M16/M18 A3023 RMK AO2 TSNO
KPNM 121035Z AUTO 00000KT 10SM CLR M16/M18 A3023 RMK AO2 TSNO
KPNM 121015Z AUTO 28003KT 10SM CLR M16/M18 A3024 RMK AO2 TSNO
KPNM 120956Z AUTO 00000KT 10SM CLR M16/M18 A3023 RMK AO2 TSNO
KPNM 120935Z AUTO 28004KT 10SM CLR M16/M17 A3024 RMK AO2 TSNO
KPNM 120915Z AUTO 27004KT 10SM CLR M15/M17 A3024 RMK AO2 TSNO
KPNM 120855Z AUTO 27005KT 10SM CLR M15/M17 A3024 RMK AO2 TSNO
KPNM 120835Z AUTO 29005KT 10SM CLR M15/M17 A3024 RMK AO2 TSNO
KPNM 120815Z AUTO 29004KT 10SM CLR M14/M17 A3024 RMK AO2 TSNO
KPNM 120755Z AUTO 29006KT 10SM CLR M14/M17 A3023 RMK AO2 TSNO
KPNM 120735Z AUTO 30007KT 10SM CLR M14/M17 A3023 RMK AO2 TSNO
KPNM 120715Z AUTO 29007KT 10SM CLR M14/M17 A3024 RMK AO2 TSNO
KPNM 120655Z AUTO 29007KT 10SM CLR M13/M16 A3024 RMK AO2 TSNO
KPNM 120635Z AUTO 29006KT 10SM CLR M13/M16 A3024 RMK AO2 TSNO
KPNM 120615Z AUTO 29008KT 10SM CLR M12/M16 A3024 RMK AO2 TSNO
KPNM 120555Z AUTO 29006KT 10SM CLR M12/M15 A3024 RMK AO2 TSNO
KPNM 120535Z AUTO 30006KT 10SM CLR M12/M14 A3023 RMK AO2 TSNO
KPNM 120515Z AUTO 29008KT 10SM CLR M11/M14 A3023 RMK AO2 TSNO
KPNM 120455Z AUTO 29008KT 10SM CLR M11/M14 A3023 RMK AO2 TSNO
KPNM 120435Z AUTO 29007KT 10SM CLR M11/M13 A3022 RMK AO2 TSNO
KPNM 120415Z AUTO 29008KT 10SM CLR M10/M13 A3022 RMK AO2 TSNO
KPNM 120355Z AUTO 30009G17KT 10SM CLR M09/M13 A3021 RMK AO2 TSNO
KPNM 120335Z AUTO 29010KT 10SM CLR M09/M12 A3021 RMK AO2 TSNO
KPNM 120315Z AUTO 30010KT 10SM CLR M09/M12 A3020 RMK AO2 TSNO
KPNM 120255Z AUTO 30009KT 10SM CLR M09/M13 A3019 RMK AO2 TSNO
KPNM 120235Z AUTO 30005KT 10SM CLR M08/M13 A3019 RMK AO2 TSNO
KPNM 120215Z AUTO 31008G15KT 10SM CLR M07/M13 A3019 RMK AO2 TSNO
KPNM 120155Z AUTO 31009G15KT 10SM CLR M07/M12 A3018 RMK AO2 TSNO
KPNM 120135Z AUTO 30007KT 10SM CLR M07/M12 A3017 RMK AO2 TSNO
KPNM 120115Z AUTO 29007KT 10SM CLR M07/M12 A3016 RMK AO2 TSNO
KPNM 120055Z AUTO 31009KT 10SM CLR M06/M11 A3015 RMK AO2 TSNO
KPNM 120035Z AUTO 31011G16KT 10SM CLR M06/M11 A3014 RMK AO2 TSNO
KPNM 120015Z AUTO 32011G15KT 10SM CLR M06/M11 A3013 RMK AO2 TSNO
KPNM 112355Z AUTO 32013G20KT 10SM CLR M05/M11 A3011 RMK AO2 TSNO
KPNM 112335Z AUTO 32010KT 10SM SCT031 M04/M10 A3010 RMK AO2 TSNO
KPNM 112315Z AUTO 31011KT 10SM BKN031 M04/M09 A3008 RMK AO2 TSNO
KPNM 112255Z AUTO 31012G19KT 10SM OVC029 M03/M09 A3006 RMK AO2 TSNO
KPNM 112235Z AUTO 32012G19KT 10SM OVC027 M03/M08 A3005 RMK AO2 TSNO
KPNM 112215Z AUTO 32011G14KT 10SM OVC027 M03/M08 A3004 RMK AO2 TSNO
KPNM 112155Z AUTO 32012KT 10SM OVC027 M03/M08 A3003 RMK AO2 TSNO
KPNM 112135Z AUTO 33014G19KT 10SM OVC027 M02/M07 A3002 RMK AO2 TSNO
KPNM 112115Z AUTO 32010G18KT 10SM OVC024 M02/M06 A2999 RMK AO2 TSNO
KPNM 112055Z AUTO 31016G23KT 10SM OVC024 M01/M06 A2998 RMK AO2 TSNO
KPNM 112035Z AUTO 32012G18KT 10SM BKN020 OVC026 M01/M05 A2996 RMK AO2 TSNO
KPNM 112015Z AUTO 32015G22KT 10SM BKN020 OVC026 M01/M04 A2995 RMK AO2 TSNO
KPNM 111955Z AUTO 32015G24KT 10SM BKN018 OVC026 00/M03 A2993 RMK AO2 TSNO
KPNM 111935Z AUTO 31012G19KT 10SM OVC018 01/M03 A2991 RMK AO2 TSNO
KPNM 111855Z AUTO 32010G19KT 10SM OVC022 01/M03 A2988 RMK AO2 TSNO P0002
KPNM 111835Z AUTO 33018G27KT 10SM OVC022 02/M03 A2986 RMK AO2 TSNO P0002
KPNM 111815Z AUTO 33016G25KT 10SM OVC018 01/M03 A2985 RMK AO2 TSNO
KPNM 111755Z AUTO 33013G23KT 10SM OVC018 02/M02 A2984 RMK AO2 TSNO
KPNM 111735Z AUTO 34017G21KT 10SM OVC018 02/M02 A2983 RMK AO2 TSNO
KPNM 111715Z AUTO 32011G19KT 10SM OVC018 02/M01 A2981 RMK AO2 TSNO
KPNM 111655Z AUTO 32014G20KT 10SM OVC014 02/00 A2979 RMK AO2 TSNO
KPNM 111635Z AUTO 32011G15KT 10SM OVC012 02/00 A2978 RMK AO2 TSNO
KPNM 111616Z AUTO 31009KT 10SM OVC012 01/00 A2977 RMK AO2 TSNO
KPNM 111555Z AUTO 30006KT 10SM BKN012 OVC033 01/M01 A2975 RMK AO2 TSNO
KPNM 111535Z AUTO 29005KT 7SM BKN031 OVC038 00/M01 A2974 RMK AO2 TSNO
KPNM 111515Z AUTO 29003KT 7SM SCT022 BKN029 OVC038 00/M01 A2974 RMK AO2 TSNO
KPNM 111455Z AUTO 27003KT 5SM BR SCT014 SCT022 OVC038 M01/M02 A2973 RMK AO2 TSNO
KPNM 111435Z AUTO 00000KT 5SM BR SCT014 BKN024 OVC038 M01/M02 A2972 RMK AO2 TSNO
KPNM 111415Z AUTO 00000KT 4SM BR SCT019 BKN024 OVC040 M01/M02 A2972 RMK AO2 TSNO
KPNM 111355Z AUTO 00000KT 5SM BR SCT016 BKN036 OVC042 M01/M02 A2971 RMK AO2 TSNO
KPNM 111335Z AUTO 00000KT 5SM BR BKN018 OVC035 M01/M02 A2971 RMK AO2 TSNO
KPNM 111315Z AUTO 00000KT 3SM -SN SCT011 BKN018 OVC039 M01/M02 A2971 RMK AO2 TSNO
KPNM 111255Z AUTO 00000KT 1 3/4SM -SN BKN011 BKN018 OVC026 M01/M02 A2971 RMK AO2 TSNO
KPNM 111235Z AUTO 00000KT 4SM -SN SCT006 BKN022 OVC034 M01/M02 A2972 RMK AO2 TSNO
KPNM 111215Z AUTO 25003KT 5SM UP SCT021 SCT031 OVC039 M01/M03 A2972 RMK AO2 TSNO
KPNM 111155Z AUTO 14005KT 4SM SN SCT035 BKN045 OVC070 M02/M03 A2970 RMK AO2 TSNO
KPNM 111135Z AUTO 14005KT 7SM -SN SCT039 SCT055 OVC070 M02/M03 A2971 RMK AO2 TSNO
KPNM 111115Z AUTO 15004KT 3SM -SN SCT023 BKN045 OVC050 M02/M03 A2973 RMK AO2 TSNO
KPNM 111055Z AUTO 17003KT 10SM SCT029 BKN050 OVC090 M02/M03 A2974 RMK AO2 TSNO
KPNM 111035Z AUTO 16003KT 10SM OVC050 M02/M03 A2974 RMK AO2 TSNO
KPNM 111015Z AUTO 15005KT 10SM OVC050 M02/M03 A2975 RMK AO2 TSNO
KPNM 110955Z AUTO 15004KT 10SM SCT035 OVC050 M02/M03 A2976 RMK AO2 TSNO
KPNM 110935Z AUTO 16005KT 7SM OVC035 M02/M03 A2978 RMK AO2 TSNO
KPNM 110915Z AUTO 15006KT 7SM SCT007 OVC037 M02/M03 A2978 RMK AO2 TSNO
KPNM 110855Z AUTO 17005KT 7SM BKN007 OVC014 M03/M04 A2980 RMK AO2 TSNO
KPNM 110835Z AUTO 17005KT 7SM SCT007 OVC014 M03/M04 A2980 RMK AO2 TSNO
KPNM 110815Z AUTO 16004KT 7SM -SN OVC014 M03/M04 A2981 RMK AO2 TSNO
KPNM 110755Z AUTO 16005KT 7SM UP SCT016 BKN021 BKN031 M03/M04 A2983 RMK AO2 TSNO
KPNM 110735Z AUTO 13007KT 4SM -SN SCT014 BKN020 OVC060 M03/M04 A2981 RMK AO2 TSNO
KPNM 110715Z AUTO 15003KT 1 3/4SM -SN SCT010 OVC016 M03/M04 A2985 RMK AO2 TSNO
KPNM 110655Z AUTO 16003KT 1 1/4SM -SN BKN007 OVC011 M03/M05 A2987 RMK AO2 TSNO
KPNM 110635Z AUTO 18003KT 3/4SM SN OVC005 M03/M05 A2989 RMK AO2 TSNO
KPNM 110615Z AUTO 00000KT 1 3/4SM -SN BKN009 BKN014 OVC020 M03/M06 A2990 RMK AO2 TSNO
KPNM 110555Z AUTO 00000KT 10SM SCT028 BKN035 OVC065 M03/M06 A2991 RMK AO2 TSNO
KPNM 110535Z AUTO 13003KT 10SM BKN065 OVC070 M04/M06 A2990 RMK AO2 TSNO
KPNM 110515Z AUTO 13003KT 10SM SCT060 BKN075 M04/M06 A2991 RMK AO2 TSNO
KPNM 110455Z AUTO 14003KT 10SM BKN075 M04/M06 A2992 RMK AO2 TSNO
KPNM 110435Z AUTO 00000KT 10SM OVC075 M05/M06 A2995 RMK AO2 TSNO
KPNM 110415Z AUTO 00000KT 10SM OVC075 M05/M06 A2995 RMK AO2 TSNO
KPNM 110355Z AUTO 00000KT 10SM OVC075 M06/M07 A2996 RMK AO2 TSNO
KPNM 110335Z AUTO 00000KT 10SM OVC075 M06/M08 A2997 RMK AO2 TSNO
KPNM 110315Z AUTO 00000KT 10SM BKN075 M08/M09 A2997 RMK AO2 TSNO
KPNM 110255Z AUTO 00000KT 10SM CLR M08/M09 A2998 RMK AO2 TSNO
KPNM 110235Z AUTO 00000KT 10SM CLR M08/M09 A2998 RMK AO2 TSNO
KPNM 110215Z AUTO 00000KT 10SM CLR M09/M11 A2998 RMK AO2 TSNO